sensor_id;sensor_type;location;lat;lon;timestamp;pressure;altitude;pressure_sealevel;temperature
62706;BMP280;51050;51.784;9.372;2022-07-29T00:00:29;100603.56;;;18.73
62706;BMP280;51050;51.784;9.372;2022-07-29T00:02:54;100601.59;;;18.74
62706;BMP280;51050;51.784;9.372;2022-07-29T00:05:19;100599.88;;;18.61
62706;BMP280;51050;51.784;9.372;2022-07-29T00:07:45;100596.38;;;18.72
62706;BMP280;51050;51.784;9.372;2022-07-29T00:10:10;100591.03;;;18.67
62706;BMP280;51050;51.784;9.372;2022-07-29T00:12:35;100579.97;;;18.50
62706;BMP280;51050;51.784;9.372;2022-07-29T00:15:00;100576.72;;;18.48
62706;BMP280;51050;51.784;9.372;2022-07-29T00:17:25;100567.47;;;18.35
62706;BMP280;51050;51.784;9.372;2022-07-29T00:19:51;100567.59;;;18.47
62706;BMP280;51050;51.784;9.372;2022-07-29T00:22:16;100567.25;;;18.49
62706;BMP280;51050;51.784;9.372;2022-07-29T00:24:41;100563.53;;;18.45
62706;BMP280;51050;51.784;9.372;2022-07-29T00:27:06;100562.25;;;18.34
62706;BMP280;51050;51.784;9.372;2022-07-29T00:29:32;100550.03;;;18.35
62706;BMP280;51050;51.784;9.372;2022-07-29T00:31:57;100556.19;;;18.40
62706;BMP280;51050;51.784;9.372;2022-07-29T00:34:22;100549.56;;;18.24
62706;BMP280;51050;51.784;9.372;2022-07-29T00:37:06;100547.19;;;17.97
62706;BMP280;51050;51.784;9.372;2022-07-29T00:39:31;100549.44;;;18.12
62706;BMP280;51050;51.784;9.372;2022-07-29T00:41:56;100544.94;;;17.90
62706;BMP280;51050;51.784;9.372;2022-07-29T00:44:21;100551.44;;;17.94
62706;BMP280;51050;51.784;9.372;2022-07-29T00:46:46;100544.63;;;17.83
62706;BMP280;51050;51.784;9.372;2022-07-29T00:49:12;100552.72;;;17.97
62706;BMP280;51050;51.784;9.372;2022-07-29T00:51:37;100550.75;;;18.06
62706;BMP280;51050;51.784;9.372;2022-07-29T00:54:03;100553.00;;;18.12
62706;BMP280;51050;51.784;9.372;2022-07-29T00:56:29;100546.59;;;18.29
62706;BMP280;51050;51.784;9.372;2022-07-29T00:58:55;100550.56;;;18.20
62706;BMP280;51050;51.784;9.372;2022-07-29T01:01:21;100555.31;;;18.19
62706;BMP280;51050;51.784;9.372;2022-07-29T01:03:46;100543.88;;;18.21
62706;BMP280;51050;51.784;9.372;2022-07-29T01:06:11;100546.47;;;18.26
62706;BMP280;51050;51.784;9.372;2022-07-29T01:08:36;100539.94;;;18.30
62706;BMP280;51050;51.784;9.372;2022-07-29T01:11:02;100540.72;;;18.39
62706;BMP280;51050;51.784;9.372;2022-07-29T01:13:27;100535.97;;;18.40
62706;BMP280;51050;51.784;9.372;2022-07-29T01:16:10;100535.41;;;18.26
62706;BMP280;51050;51.784;9.372;2022-07-29T01:18:39;100527.06;;;18.34
62706;BMP280;51050;51.784;9.372;2022-07-29T01:29:02;100520.56;;;18.22
62706;BMP280;51050;51.784;9.372;2022-07-29T01:31:45;100520.97;;;18.03
62706;BMP280;51050;51.784;9.372;2022-07-29T01:34:15;100518.78;;;18.17
62706;BMP280;51050;51.784;9.372;2022-07-29T01:36:48;100510.28;;;18.22
62706;BMP280;51050;51.784;9.372;2022-07-29T01:39:32;100505.28;;;18.07
62706;BMP280;51050;51.784;9.372;2022-07-29T01:44:29;100516.72;;;17.97
62706;BMP280;51050;51.784;9.372;2022-07-29T01:46:56;100502.56;;;17.98
62706;BMP280;51050;51.784;9.372;2022-07-29T01:49:27;100500.91;;;17.97
62706;BMP280;51050;51.784;9.372;2022-07-29T01:54:41;100504.72;;;17.75
62706;BMP280;51050;51.784;9.372;2022-07-29T01:57:08;100500.97;;;17.80
62706;BMP280;51050;51.784;9.372;2022-07-29T01:59:34;100494.78;;;17.74
62706;BMP280;51050;51.784;9.372;2022-07-29T02:02:01;100496.91;;;17.60
62706;BMP280;51050;51.784;9.372;2022-07-29T02:04:27;100498.88;;;17.68
62706;BMP280;51050;51.784;9.372;2022-07-29T02:06:52;100491.72;;;17.67
62706;BMP280;51050;51.784;9.372;2022-07-29T02:09:19;100495.59;;;17.75
62706;BMP280;51050;51.784;9.372;2022-07-29T02:11:47;100490.22;;;17.78
62706;BMP280;51050;51.784;9.372;2022-07-29T02:14:13;100478.19;;;17.74
62706;BMP280;51050;51.784;9.372;2022-07-29T02:16:39;100484.03;;;17.56
62706;BMP280;51050;51.784;9.372;2022-07-29T02:19:05;100485.34;;;17.67
62706;BMP280;51050;51.784;9.372;2022-07-29T02:21:31;100472.50;;;17.62
62706;BMP280;51050;51.784;9.372;2022-07-29T02:23:59;100476.88;;;17.63
62706;BMP280;51050;51.784;9.372;2022-07-29T02:26:43;100479.00;;;17.58
62706;BMP280;51050;51.784;9.372;2022-07-29T02:29:09;100478.19;;;17.66
62706;BMP280;51050;51.784;9.372;2022-07-29T02:31:35;100466.63;;;17.55
62706;BMP280;51050;51.784;9.372;2022-07-29T02:34:05;100469.69;;;17.54
62706;BMP280;51050;51.784;9.372;2022-07-29T02:36:31;100463.19;;;17.58
62706;BMP280;51050;51.784;9.372;2022-07-29T02:38:57;100464.84;;;17.42
62706;BMP280;51050;51.784;9.372;2022-07-29T02:41:30;100457.84;;;17.36
62706;BMP280;51050;51.784;9.372;2022-07-29T02:44:00;100466.81;;;17.24
62706;BMP280;51050;51.784;9.372;2022-07-29T02:46:28;100462.41;;;17.32
62706;BMP280;51050;51.784;9.372;2022-07-29T02:48:57;100458.50;;;17.33
62706;BMP280;51050;51.784;9.372;2022-07-29T02:51:24;100464.38;;;17.23
62706;BMP280;51050;51.784;9.372;2022-07-29T02:53:53;100470.06;;;17.09
62706;BMP280;51050;51.784;9.372;2022-07-29T02:56:20;100465.16;;;16.97
62706;BMP280;51050;51.784;9.372;2022-07-29T02:58:49;100467.59;;;16.90
62706;BMP280;51050;51.784;9.372;2022-07-29T03:01:20;100460.28;;;17.03
62706;BMP280;51050;51.784;9.372;2022-07-29T03:03:46;100466.13;;;17.01
62706;BMP280;51050;51.784;9.372;2022-07-29T03:06:13;100455.56;;;17.12
62706;BMP280;51050;51.784;9.372;2022-07-29T03:08:40;100461.59;;;17.06
62706;BMP280;51050;51.784;9.372;2022-07-29T03:11:07;100460.78;;;17.14
62706;BMP280;51050;51.784;9.372;2022-07-29T03:13:32;100459.81;;;17.10
62706;BMP280;51050;51.784;9.372;2022-07-29T03:15:58;100468.25;;;17.13
62706;BMP280;51050;51.784;9.372;2022-07-29T03:18:23;100469.88;;;17.06
62706;BMP280;51050;51.784;9.372;2022-07-29T03:20:49;100470.88;;;17.01
62706;BMP280;51050;51.784;9.372;2022-07-29T03:23:18;100464.69;;;17.04
62706;BMP280;51050;51.784;9.372;2022-07-29T03:25:44;100458.66;;;17.02
62706;BMP280;51050;51.784;9.372;2022-07-29T03:28:09;100460.78;;;16.96
62706;BMP280;51050;51.784;9.372;2022-07-29T03:30:35;100456.69;;;16.94
62706;BMP280;51050;51.784;9.372;2022-07-29T03:33:00;100458.50;;;16.90
62706;BMP280;51050;51.784;9.372;2022-07-29T03:35:25;100464.53;;;16.92
62706;BMP280;51050;51.784;9.372;2022-07-29T03:37:51;100459.81;;;17.01
62706;BMP280;51050;51.784;9.372;2022-07-29T03:40:22;100460.94;;;16.91
62706;BMP280;51050;51.784;9.372;2022-07-29T03:42:50;100462.72;;;16.87
62706;BMP280;51050;51.784;9.372;2022-07-29T03:45:17;100447.75;;;16.88
62706;BMP280;51050;51.784;9.372;2022-07-29T03:47:45;100458.63;;;16.85
62706;BMP280;51050;51.784;9.372;2022-07-29T03:50:12;100449.38;;;16.81
62706;BMP280;51050;51.784;9.372;2022-07-29T03:52:39;100456.69;;;16.94
62706;BMP280;51050;51.784;9.372;2022-07-29T03:55:05;100450.50;;;16.71
62706;BMP280;51050;51.784;9.372;2022-07-29T03:57:30;100450.31;;;16.68
62706;BMP280;51050;51.784;9.372;2022-07-29T03:59:56;100457.81;;;16.67
62706;BMP280;51050;51.784;9.372;2022-07-29T04:02:22;100465.25;;;16.58
62706;BMP280;51050;51.784;9.372;2022-07-29T04:04:48;100463.47;;;16.62
62706;BMP280;51050;51.784;9.372;2022-07-29T04:07:13;100459.09;;;16.61
62706;BMP280;51050;51.784;9.372;2022-07-29T04:09:39;100461.88;;;16.70
62706;BMP280;51050;51.784;9.372;2022-07-29T04:12:04;100463.34;;;16.67
62706;BMP280;51050;51.784;9.372;2022-07-29T04:14:31;100462.03;;;16.64
62706;BMP280;51050;51.784;9.372;2022-07-29T04:16:56;100455.31;;;16.57
62706;BMP280;51050;51.784;9.372;2022-07-29T04:19:21;100458.44;;;16.64
62706;BMP280;51050;51.784;9.372;2022-07-29T04:21:47;100464.63;;;16.61
62706;BMP280;51050;51.784;9.372;2022-07-29T04:24:12;100463.69;;;16.74
62706;BMP280;51050;51.784;9.372;2022-07-29T04:26:37;100463.69;;;16.83
62706;BMP280;51050;51.784;9.372;2022-07-29T04:29:03;100478.66;;;16.90
62706;BMP280;51050;51.784;9.372;2022-07-29T04:31:28;100471.34;;;17.03
62706;BMP280;51050;51.784;9.372;2022-07-29T04:33:53;100483.53;;;16.93
62706;BMP280;51050;51.784;9.372;2022-07-29T04:36:18;100472.00;;;17.00
62706;BMP280;51050;51.784;9.372;2022-07-29T04:38:44;100476.72;;;16.99
62706;BMP280;51050;51.784;9.372;2022-07-29T04:41:09;100479.16;;;16.92
62706;BMP280;51050;51.784;9.372;2022-07-29T04:43:34;100476.06;;;16.94
62706;BMP280;51050;51.784;9.372;2022-07-29T04:45:59;100487.47;;;17.01
62706;BMP280;51050;51.784;9.372;2022-07-29T04:48:25;100482.41;;;16.94
62706;BMP280;51050;51.784;9.372;2022-07-29T04:50:50;100473.78;;;16.96
62706;BMP280;51050;51.784;9.372;2022-07-29T04:53:15;100474.59;;;16.96
62706;BMP280;51050;51.784;9.372;2022-07-29T04:55:40;100476.41;;;17.01
62706;BMP280;51050;51.784;9.372;2022-07-29T04:58:06;100476.06;;;17.02
62706;BMP280;51050;51.784;9.372;2022-07-29T05:00:32;100480.31;;;17.09
62706;BMP280;51050;51.784;9.372;2022-07-29T05:02:57;100480.78;;;17.02
62706;BMP280;51050;51.784;9.372;2022-07-29T05:05:22;100481.94;;;16.92
62706;BMP280;51050;51.784;9.372;2022-07-29T05:07:47;100476.53;;;16.96
62706;BMP280;51050;51.784;9.372;2022-07-29T05:10:12;100485.03;;;16.99
62706;BMP280;51050;51.784;9.372;2022-07-29T05:12:38;100482.25;;;16.99
62706;BMP280;51050;51.784;9.372;2022-07-29T05:15:03;100491.69;;;16.98
62706;BMP280;51050;51.784;9.372;2022-07-29T05:17:28;100491.03;;;17.01
62706;BMP280;51050;51.784;9.372;2022-07-29T05:19:53;100486.16;;;17.07
62706;BMP280;51050;51.784;9.372;2022-07-29T05:22:19;100485.19;;;17.12
62706;BMP280;51050;51.784;9.372;2022-07-29T05:24:44;100490.22;;;17.18
62706;BMP280;51050;51.784;9.372;2022-07-29T05:27:09;100485.84;;;17.26
62706;BMP280;51050;51.784;9.372;2022-07-29T05:29:35;100480.16;;;17.22
62706;BMP280;51050;51.784;9.372;2022-07-29T05:32:00;100478.50;;;17.21
62706;BMP280;51050;51.784;9.372;2022-07-29T05:34:25;100477.69;;;17.21
62706;BMP280;51050;51.784;9.372;2022-07-29T05:36:50;100469.91;;;17.23
62706;BMP280;51050;51.784;9.372;2022-07-29T05:39:16;100476.53;;;16.96
62706;BMP280;51050;51.784;9.372;2022-07-29T05:41:41;100467.44;;;17.04
62706;BMP280;51050;51.784;9.372;2022-07-29T05:44:06;100473.47;;;17.15
62706;BMP280;51050;51.784;9.372;2022-07-29T05:46:31;100481.47;;;17.16
62706;BMP280;51050;51.784;9.372;2022-07-29T05:48:56;100473.16;;;17.25
62706;BMP280;51050;51.784;9.372;2022-07-29T05:51:21;100477.56;;;17.26
62706;BMP280;51050;51.784;9.372;2022-07-29T05:53:47;100481.28;;;17.30
62706;BMP280;51050;51.784;9.372;2022-07-29T05:56:12;100485.50;;;17.36
62706;BMP280;51050;51.784;9.372;2022-07-29T05:58:37;100481.91;;;17.44
62706;BMP280;51050;51.784;9.372;2022-07-29T06:01:02;100484.84;;;17.48
62706;BMP280;51050;51.784;9.372;2022-07-29T06:03:28;100479.97;;;17.53
62706;BMP280;51050;51.784;9.372;2022-07-29T06:05:53;100479.00;;;17.58
62706;BMP280;51050;51.784;9.372;2022-07-29T06:08:18;100480.47;;;17.64
62706;BMP280;51050;51.784;9.372;2022-07-29T06:10:44;100474.28;;;17.67
62706;BMP280;51050;51.784;9.372;2022-07-29T06:13:10;100474.13;;;17.63
62706;BMP280;51050;51.784;9.372;2022-07-29T06:15:35;100471.53;;;17.67
62706;BMP280;51050;51.784;9.372;2022-07-29T06:18:00;100469.06;;;17.65
62706;BMP280;51050;51.784;9.372;2022-07-29T06:20:26;100470.81;;;17.61
62706;BMP280;51050;51.784;9.372;2022-07-29T06:22:51;100465.97;;;17.58
62706;BMP280;51050;51.784;9.372;2022-07-29T06:25:16;100460.94;;;17.52
62706;BMP280;51050;51.784;9.372;2022-07-29T06:27:42;100466.63;;;17.55
62706;BMP280;51050;51.784;9.372;2022-07-29T06:30:07;100467.44;;;17.64
62706;BMP280;51050;51.784;9.372;2022-07-29T06:32:33;100472.78;;;17.69
62706;BMP280;51050;51.784;9.372;2022-07-29T06:34:58;100472.78;;;17.69
62706;BMP280;51050;51.784;9.372;2022-07-29T06:37:23;100469.25;;;17.69
62706;BMP280;51050;51.784;9.372;2022-07-29T06:39:48;100475.75;;;17.64
62706;BMP280;51050;51.784;9.372;2022-07-29T06:42:33;100471.03;;;17.65
62706;BMP280;51050;51.784;9.372;2022-07-29T06:44:58;100457.84;;;17.62
62706;BMP280;51050;51.784;9.372;2022-07-29T06:47:24;100467.25;;;17.61
62706;BMP280;51050;51.784;9.372;2022-07-29T06:49:49;100470.81;;;17.61
62706;BMP280;51050;51.784;9.372;2022-07-29T06:52:14;100473.47;;;17.49
62706;BMP280;51050;51.784;9.372;2022-07-29T06:54:39;100470.22;;;17.47
62706;BMP280;51050;51.784;9.372;2022-07-29T06:57:12;100467.75;;;17.46
62706;BMP280;51050;51.784;9.372;2022-07-29T06:59:37;100471.53;;;17.41
62706;BMP280;51050;51.784;9.372;2022-07-29T07:02:03;100461.91;;;17.38
62706;BMP280;51050;51.784;9.372;2022-07-29T07:04:28;100467.75;;;17.46
62706;BMP280;51050;51.784;9.372;2022-07-29T07:06:53;100475.09;;;17.50
62706;BMP280;51050;51.784;9.372;2022-07-29T07:09:20;100474.28;;;17.50
62706;BMP280;51050;51.784;9.372;2022-07-29T07:11:45;100485.19;;;17.46
62706;BMP280;51050;51.784;9.372;2022-07-29T07:14:10;100483.91;;;17.52
62706;BMP280;51050;51.784;9.372;2022-07-29T07:16:35;100472.63;;;17.57
62706;BMP280;51050;51.784;9.372;2022-07-29T07:19:01;100472.34;;;17.67
62706;BMP280;51050;51.784;9.372;2022-07-29T07:21:27;100477.66;;;17.81
62706;BMP280;51050;51.784;9.372;2022-07-29T07:23:52;100482.53;;;17.93
62706;BMP280;51050;51.784;9.372;2022-07-29T07:26:17;100478.44;;;17.99
62706;BMP280;51050;51.784;9.372;2022-07-29T07:28:42;100479.22;;;18.08
62706;BMP280;51050;51.784;9.372;2022-07-29T07:31:08;100481.44;;;18.23
62706;BMP280;51050;51.784;9.372;2022-07-29T07:33:34;100474.88;;;18.36
62706;BMP280;51050;51.784;9.372;2022-07-29T07:35:59;100473.66;;;18.46
62706;BMP280;51050;51.784;9.372;2022-07-29T07:38:24;100478.56;;;18.49
62706;BMP280;51050;51.784;9.372;2022-07-29T07:40:49;100475.78;;;18.49
62706;BMP280;51050;51.784;9.372;2022-07-29T07:43:14;100480.66;;;18.52
62706;BMP280;51050;51.784;9.372;2022-07-29T07:45:40;100482.97;;;18.50
62706;BMP280;51050;51.784;9.372;2022-07-29T07:48:06;100477.75;;;18.48
62706;BMP280;51050;51.784;9.372;2022-07-29T07:50:31;100478.06;;;18.47
62706;BMP280;51050;51.784;9.372;2022-07-29T07:52:56;100478.75;;;18.44
62706;BMP280;51050;51.784;9.372;2022-07-29T07:55:22;100483.00;;;18.41
62706;BMP280;51050;51.784;9.372;2022-07-29T07:57:48;100480.22;;;18.41
62706;BMP280;51050;51.784;9.372;2022-07-29T08:00:13;100480.72;;;18.43
62706;BMP280;51050;51.784;9.372;2022-07-29T08:02:39;100492.47;;;18.40
62706;BMP280;51050;51.784;9.372;2022-07-29T08:05:05;100486.44;;;18.38
62706;BMP280;51050;51.784;9.372;2022-07-29T08:07:30;100487.72;;;18.41
62706;BMP280;51050;51.784;9.372;2022-07-29T08:09:55;100486.59;;;18.42
62706;BMP280;51050;51.784;9.372;2022-07-29T08:12:21;100491.81;;;18.43
62706;BMP280;51050;51.784;9.372;2022-07-29T08:14:46;100487.06;;;18.44
62706;BMP280;51050;51.784;9.372;2022-07-29T08:17:11;100489.53;;;18.45
62706;BMP280;51050;51.784;9.372;2022-07-29T08:19:36;100483.84;;;18.33
62706;BMP280;51050;51.784;9.372;2022-07-29T08:22:02;100492.47;;;18.40
62706;BMP280;51050;51.784;9.372;2022-07-29T08:24:27;100496.38;;;18.39
62706;BMP280;51050;51.784;9.372;2022-07-29T08:27:08;100491.81;;;18.43
62706;BMP280;51050;51.784;9.372;2022-07-29T08:29:33;100501.25;;;18.42
62706;BMP280;51050;51.784;9.372;2022-07-29T08:31:58;100501.25;;;18.42
62706;BMP280;51050;51.784;9.372;2022-07-29T08:34:24;100495.56;;;18.39
62706;BMP280;51050;51.784;9.372;2022-07-29T08:36:49;100506.63;;;18.39
62706;BMP280;51050;51.784;9.372;2022-07-29T08:39:14;100498.00;;;18.40
62706;BMP280;51050;51.784;9.372;2022-07-29T08:41:39;100488.22;;;18.43
62706;BMP280;51050;51.784;9.372;2022-07-29T08:44:05;100488.81;;;18.48
62706;BMP280;51050;51.784;9.372;2022-07-29T08:46:30;100493.84;;;18.55
62706;BMP280;51050;51.784;9.372;2022-07-29T08:48:55;100488.81;;;18.57
62706;BMP280;51050;51.784;9.372;2022-07-29T08:51:20;100497.28;;;18.61
62706;BMP280;51050;51.784;9.372;2022-07-29T08:53:46;100481.16;;;18.63
62706;BMP280;51050;51.784;9.372;2022-07-29T08:56:13;100491.53;;;18.66
62706;BMP280;51050;51.784;9.372;2022-07-29T08:58:39;100488.59;;;18.71
62706;BMP280;51050;51.784;9.372;2022-07-29T09:01:04;100481.22;;;18.75
62706;BMP280;51050;51.784;9.372;2022-07-29T09:03:30;100486.56;;;18.80
62706;BMP280;51050;51.784;9.372;2022-07-29T09:05:55;100478.38;;;18.83
62706;BMP280;51050;51.784;9.372;2022-07-29T09:08:21;100486.22;;;18.81
62706;BMP280;51050;51.784;9.372;2022-07-29T09:10:46;100485.41;;;18.81
62706;BMP280;51050;51.784;9.372;2022-07-29T09:13:11;100487.72;;;18.79
62706;BMP280;51050;51.784;9.372;2022-07-29T09:15:36;100484.47;;;18.77
62706;BMP280;51050;51.784;9.372;2022-07-29T09:18:01;100472.69;;;18.80
62706;BMP280;51050;51.784;9.372;2022-07-29T09:20:27;100476.16;;;18.77
62706;BMP280;51050;51.784;9.372;2022-07-29T09:23:12;100467.16;;;18.80
62706;BMP280;51050;51.784;9.372;2022-07-29T09:25:38;100468.78;;;18.81
62706;BMP280;51050;51.784;9.372;2022-07-29T09:28:08;100446.69;;;18.64
62706;BMP280;51050;51.784;9.372;2022-07-29T09:30:34;100474.84;;;18.74
62706;BMP280;51050;51.784;9.372;2022-07-29T09:33:01;100473.91;;;18.70
62706;BMP280;51050;51.784;9.372;2022-07-29T09:35:27;100467.56;;;18.70
62706;BMP280;51050;51.784;9.372;2022-07-29T09:37:53;100466.25;;;18.67
62706;BMP280;51050;51.784;9.372;2022-07-29T09:40:23;100466.47;;;18.62
62706;BMP280;51050;51.784;9.372;2022-07-29T09:42:48;100473.97;;;18.62
62706;BMP280;51050;51.784;9.372;2022-07-29T09:45:30;100463.53;;;18.59
62706;BMP280;51050;51.784;9.372;2022-07-29T09:47:55;100460.91;;;18.62
62706;BMP280;51050;51.784;9.372;2022-07-29T09:50:34;100459.91;;;18.67
62706;BMP280;51050;51.784;9.372;2022-07-29T09:52:59;100449.97;;;18.66
62706;BMP280;51050;51.784;9.372;2022-07-29T09:55:24;100458.81;;;18.59
62706;BMP280;51050;51.784;9.372;2022-07-29T09:57:50;100457.19;;;18.49
62706;BMP280;51050;51.784;9.372;2022-07-29T10:00:16;100456.09;;;18.42
62706;BMP280;51050;51.784;9.372;2022-07-29T10:02:43;100441.91;;;18.43
62706;BMP280;51050;51.784;9.372;2022-07-29T10:05:16;100453.28;;;18.50
62706;BMP280;51050;51.784;9.372;2022-07-29T10:07:43;100445.28;;;18.49
62706;BMP280;51050;51.784;9.372;2022-07-29T10:10:08;100451.16;;;18.47
62706;BMP280;51050;51.784;9.372;2022-07-29T10:12:33;100446.09;;;18.49
62706;BMP280;51050;51.784;9.372;2022-07-29T10:14:58;100441.53;;;18.53
62706;BMP280;51050;51.784;9.372;2022-07-29T10:17:26;100447.53;;;18.56
62706;BMP280;51050;51.784;9.372;2022-07-29T10:19:51;100447.22;;;18.57
62706;BMP280;51050;51.784;9.372;2022-07-29T10:22:16;100458.63;;;18.56
62706;BMP280;51050;51.784;9.372;2022-07-29T10:24:42;100457.66;;;18.60
62706;BMP280;51050;51.784;9.372;2022-07-29T10:27:07;100459.91;;;18.67
62706;BMP280;51050;51.784;9.372;2022-07-29T10:29:33;100453.16;;;18.76
62706;BMP280;51050;51.784;9.372;2022-07-29T10:32:07;100452.28;;;18.84
62706;BMP280;51050;51.784;9.372;2022-07-29T10:34:44;100449.94;;;18.95
62706;BMP280;51050;51.784;9.372;2022-07-29T10:37:22;100444.78;;;19.06
62706;BMP280;51050;51.784;9.372;2022-07-29T10:42:52;100447.13;;;19.37
62706;BMP280;51050;51.784;9.372;2022-07-29T10:45:18;100442.59;;;19.53
62706;BMP280;51050;51.784;9.372;2022-07-29T10:47:43;100443.91;;;19.68
62706;BMP280;51050;51.784;9.372;2022-07-29T10:50:09;100443.13;;;19.79
62706;BMP280;51050;51.784;9.372;2022-07-29T11:00:43;100437.84;;;20.11
62706;BMP280;51050;51.784;9.372;2022-07-29T11:03:08;100434.50;;;20.17
62706;BMP280;51050;51.784;9.372;2022-07-29T11:08:19;100439.31;;;20.41
62706;BMP280;51050;51.784;9.372;2022-07-29T11:10:50;100434.78;;;20.49
62706;BMP280;51050;51.784;9.372;2022-07-29T11:15:59;100432.56;;;20.66
62706;BMP280;51050;51.784;9.372;2022-07-29T11:18:24;100433.47;;;20.70
62706;BMP280;51050;51.784;9.372;2022-07-29T11:20:57;100435.78;;;20.68
62706;BMP280;51050;51.784;9.372;2022-07-29T11:23:28;100431.16;;;20.72
62706;BMP280;51050;51.784;9.372;2022-07-29T11:31:38;100433.88;;;21.09
62706;BMP280;51050;51.784;9.372;2022-07-29T11:34:17;100427.81;;;21.19
62706;BMP280;51050;51.784;9.372;2022-07-29T11:39:26;100432.25;;;21.36
62706;BMP280;51050;51.784;9.372;2022-07-29T11:41:52;100429.13;;;21.37
62706;BMP280;51050;51.784;9.372;2022-07-29T11:44:17;100433.06;;;21.36
62706;BMP280;51050;51.784;9.372;2022-07-29T11:49:07;100435.44;;;21.34
62706;BMP280;51050;51.784;9.372;2022-07-29T11:51:33;100423.47;;;21.34
62706;BMP280;51050;51.784;9.372;2022-07-29T11:53:59;100424.28;;;21.34
62706;BMP280;51050;51.784;9.372;2022-07-29T11:56:24;100421.84;;;21.33
62706;BMP280;51050;51.784;9.372;2022-07-29T11:58:59;100426.25;;;21.34
62706;BMP280;51050;51.784;9.372;2022-07-29T12:01:25;100422.88;;;21.40
62706;BMP280;51050;51.784;9.372;2022-07-29T12:04:01;100414.09;;;21.54
62706;BMP280;51050;51.784;9.372;2022-07-29T12:06:27;100424.00;;;21.67
62706;BMP280;51050;51.784;9.372;2022-07-29T12:08:52;100409.56;;;21.77
62706;BMP280;51050;51.784;9.372;2022-07-29T12:11:18;100409.31;;;21.98
62706;BMP280;51050;51.784;9.372;2022-07-29T12:13:43;100414.06;;;22.13
62706;BMP280;51050;51.784;9.372;2022-07-29T12:16:09;100410.56;;;22.16
62706;BMP280;51050;51.784;9.372;2022-07-29T12:18:34;100411.47;;;22.20
62706;BMP280;51050;51.784;9.372;2022-07-29T12:20:59;100409.50;;;22.37
62706;BMP280;51050;51.784;9.372;2022-07-29T12:23:28;100396.94;;;22.46
62706;BMP280;51050;51.784;9.372;2022-07-29T12:25:53;100392.53;;;22.61
62706;BMP280;51050;51.784;9.372;2022-07-29T12:28:19;100391.69;;;22.76
62706;BMP280;51050;51.784;9.372;2022-07-29T12:30:47;100380.63;;;22.64
62706;BMP280;51050;51.784;9.372;2022-07-29T12:33:23;100393.00;;;22.47
62706;BMP280;51050;51.784;9.372;2022-07-29T12:35:53;100396.53;;;22.44
62706;BMP280;51050;51.784;9.372;2022-07-29T12:38:18;100382.78;;;22.55
62706;BMP280;51050;51.784;9.372;2022-07-29T12:40:44;100392.53;;;22.61
62706;BMP280;51050;51.784;9.372;2022-07-29T12:45:39;100377.41;;;22.62
62706;BMP280;51050;51.784;9.372;2022-07-29T12:48:04;100370.06;;;22.73
62706;BMP280;51050;51.784;9.372;2022-07-29T12:50:31;100374.22;;;22.79
62706;BMP280;51050;51.784;9.372;2022-07-29T12:53:07;100373.66;;;22.74
62706;BMP280;51050;51.784;9.372;2022-07-29T12:55:46;100368.25;;;22.81
62706;BMP280;51050;51.784;9.372;2022-07-29T12:58:14;100357.06;;;22.96
62706;BMP280;51050;51.784;9.372;2022-07-29T13:00:39;100362.19;;;23.14
62706;BMP280;51050;51.784;9.372;2022-07-29T13:03:04;100356.66;;;23.17
62706;BMP280;51050;51.784;9.372;2022-07-29T13:05:43;100354.88;;;23.28
62706;BMP280;51050;51.784;9.372;2022-07-29T13:08:13;100350.59;;;23.34
62706;BMP280;51050;51.784;9.372;2022-07-29T13:10:38;100347.56;;;23.43
62706;BMP280;51050;51.784;9.372;2022-07-29T13:13:13;100353.59;;;23.45
62706;BMP280;51050;51.784;9.372;2022-07-29T13:15:40;100344.56;;;23.52
62706;BMP280;51050;51.784;9.372;2022-07-29T13:18:25;100346.69;;;23.58
62706;BMP280;51050;51.784;9.372;2022-07-29T13:23:59;100338.50;;;23.69
62706;BMP280;51050;51.784;9.372;2022-07-29T13:29:48;100323.75;;;24.74
62706;BMP280;51050;51.784;9.372;2022-07-29T13:32:38;100327.84;;;25.50
62706;BMP280;51050;51.784;9.372;2022-07-29T13:35:08;100324.97;;;27.11
62706;BMP280;51050;51.784;9.372;2022-07-29T13:37:36;100318.66;;;27.99
62706;BMP280;51050;51.784;9.372;2022-07-29T13:40:37;100318.28;;;28.29
62706;BMP280;51050;51.784;9.372;2022-07-29T13:43:25;100315.81;;;27.53
62706;BMP280;51050;51.784;9.372;2022-07-29T13:46:13;100314.66;;;27.79
62706;BMP280;51050;51.784;9.372;2022-07-29T13:49:14;100312.56;;;27.33
62706;BMP280;51050;51.784;9.372;2022-07-29T13:52:23;100311.94;;;29.12
62706;BMP280;51050;51.784;9.372;2022-07-29T14:04:45;100314.28;;;29.94
62706;BMP280;51050;51.784;9.372;2022-07-29T14:07:56;100322.25;;;28.42
62706;BMP280;51050;51.784;9.372;2022-07-29T14:10:30;100309.44;;;27.84
62706;BMP280;51050;51.784;9.372;2022-07-29T14:12:56;100307.78;;;27.44
62706;BMP280;51050;51.784;9.372;2022-07-29T14:15:30;100309.72;;;27.16
62706;BMP280;51050;51.784;9.372;2022-07-29T14:18:03;100310.88;;;27.00
62706;BMP280;51050;51.784;9.372;2022-07-29T14:20:43;100311.28;;;26.95
62706;BMP280;51050;51.784;9.372;2022-07-29T14:23:36;100310.00;;;26.89
62706;BMP280;51050;51.784;9.372;2022-07-29T14:26:14;100304.78;;;26.84
62706;BMP280;51050;51.784;9.372;2022-07-29T14:29:21;100311.09;;;26.63
62706;BMP280;51050;51.784;9.372;2022-07-29T14:31:46;100302.28;;;26.61
62706;BMP280;51050;51.784;9.372;2022-07-29T14:34:11;100302.59;;;26.49
62706;BMP280;51050;51.784;9.372;2022-07-29T14:36:36;100300.22;;;26.51
62706;BMP280;51050;51.784;9.372;2022-07-29T14:39:01;100300.22;;;26.51
62706;BMP280;51050;51.784;9.372;2022-07-29T14:41:26;100299.41;;;26.54
62706;BMP280;51050;51.784;9.372;2022-07-29T14:43:53;100305.41;;;26.49
62706;BMP280;51050;51.784;9.372;2022-07-29T14:46:18;100295.78;;;26.50
62706;BMP280;51050;51.784;9.372;2022-07-29T14:48:43;100303.03;;;26.55
62706;BMP280;51050;51.784;9.372;2022-07-29T14:51:08;100293.84;;;26.65
62706;BMP280;51050;51.784;9.372;2022-07-29T14:53:34;100295.13;;;26.82
62706;BMP280;51050;51.784;9.372;2022-07-29T14:55:59;100306.75;;;26.80
62706;BMP280;51050;51.784;9.372;2022-07-29T14:58:24;100294.31;;;26.78